Ship Status Report: callsign AMOUK35

sailwx.info

Track history (hours):
 
Tides and Currents Weather Stations Pressure Air Temp Water Temp Dewpoint Dewpoint Depression Visibility Wind Speed Wind Dir Waves Ship Positions

Callsign AMOUK35 (name unknown)

Last reported at 2014-Aug-29 08:00 UTC. Time now 2014-Aug-29 10:21 UTC.
Position N 56°00' W 003°12'.

Barometer 999.1 mb
Air temperature 17.0 ° C
Dewpoint 11.6 ° C

Date/timePositionNaut miles runAvg speedWind from/ knotsBaromVisibWave heightAir tempDewpointWater temp
2014-Aug-29 08:00N 56°00' W 003°12'0 0.0 999.1 17.011.6
2014-Aug-29 07:00N 56°00' W 003°12'0 0.0 999.1 15.211.7
2014-Aug-29 06:00N 56°00' W 003°12'0 0.0 999.2 14.511.8
2014-Aug-29 04:00N 56°00' W 003°12'0 0.0 1000.0 14.912.3
2014-Aug-29 02:00N 56°00' W 003°12'0 0.0 1001.0 15.911.9
2014-Aug-29 01:00N 56°00' W 003°12'0 0.0 1001.7 16.011.0
2014-Aug-28 19:00N 56°00' W 003°12'0 0.0 1003.4 16.9 8.8
2014-Aug-28 18:00N 56°00' W 003°12'0 0.0 1003.6 18.5 7.3
2014-Aug-28 17:00N 56°00' W 003°12'0 0.0 1003.5 19.0 8.1
2014-Aug-28 12:00N 56°00' W 003°12'0 0.0 1004.0 20.211.0
2014-Aug-28 11:00N 56°00' W 003°12'0 0.0 1004.0 19.810.4
2014-Aug-28 08:00N 56°00' W 003°12'0 0.0 1004.7 16.112.6
2014-Aug-28 05:00N 56°00' W 003°12'0 0.0 1005.3 14.611.9
2014-Aug-27 21:00N 56°00' W 003°12'0 0.0 1011.4 13.6 9.9
2014-Aug-27 19:00N 56°00' W 003°12'0 0.0 1012.1 14.4 9.1
2014-Aug-27 18:00N 56°00' W 003°12'0 0.0 1012.4 14.510.1
2014-Aug-27 17:00N 56°00' W 003°12'0 0.0 1012.8 15.6 9.6
2014-Aug-27 16:00N 56°00' W 003°12'0 0.0 1013.3 14.9 9.8
2014-Aug-27 15:00N 56°00' W 003°12'0 0.0 1013.8 15.6 9.8
2014-Aug-27 14:00N 56°00' W 003°12'0 0.0 1014.6 15.310.1
2014-Aug-27 13:00N 56°00' W 003°12'0 0.0 1015.6 14.1 8.7
2014-Aug-27 12:00N 56°00' W 003°12'0 0.0 1016.1 15.1 6.8
2014-Aug-27 11:00N 56°00' W 003°12'0 0.0 1016.8 13.0 9.9
2014-Aug-27 10:00N 56°00' W 003°12'0 0.0 1017.3 12.5 9.3
2014-Aug-27 09:00N 56°00' W 003°12'0 0.0 1017.5 11.6 7.6
2014-Aug-27 08:00N 56°00' W 003°12'0 0.0 1017.7 11.2 7.5
2014-Aug-27 07:00N 56°00' W 003°12'0 0.0 1017.5 10.8 7.6
2014-Aug-27 06:00N 56°00' W 003°12'0 0.0 1017.4 9.8 7.1
2014-Aug-27 05:00N 56°00' W 003°12'0 0.0 1017.5 9.5 6.9
2014-Aug-27 04:00N 56°00' W 003°12'0 0.0 1017.4 10.1 7.1
2014-Aug-27 03:00N 56°00' W 003°12'0 0.0 1017.8 10.3 7.1
2014-Aug-27 02:00N 56°00' W 003°12'0 0.0 1017.6 10.3 7.0
2014-Aug-27 01:00N 56°00' W 003°12'0 0.0 1017.6 10.6 6.9
2014-Aug-27 00:00N 56°00' W 003°12'0 0.0 1017.5 11.0 8.1
2014-Aug-26 23:00N 56°00' W 003°12'0 0.0 1017.2 11.1 8.1
2014-Aug-26 22:00N 56°00' W 003°12'0 0.0 1017.1 11.7 8.3
2014-Aug-26 21:00N 56°00' W 003°12'0 0.0 1016.9 12.9 8.7
2014-Aug-26 20:00N 56°00' W 003°12'0 0.0 1016.5 13.0 8.4
2014-Aug-26 19:00N 56°00' W 003°12'0 0.0 1015.9 13.5 8.2
2014-Aug-26 18:00N 56°00' W 003°12'0 0.0 1015.4 14.0 8.0
2014-Aug-26 17:00N 56°00' W 003°12'0 0.0 1015.3 14.1 7.8
2014-Aug-26 16:00N 56°00' W 003°12'0 0.0 1015.2 14.2 7.8
2014-Aug-26 15:00N 56°00' W 003°12'0 0.0 1015.0 14.1 7.6
2014-Aug-26 14:00N 56°00' W 003°12'0 0.0 1014.9 13.8 7.5
2014-Aug-26 13:00N 56°00' W 003°12'0 0.0 1014.9 12.7 8.2
2014-Aug-26 12:00N 56°00' W 003°12'3 3.4 1014.4 12.9 8.8
2014-Aug-26 11:00N 56°00' W 003°18'7 6.7 1014.0 13.1 8.8
2014-Aug-26 10:00N 56°00' W 003°30'0 0.0 1013.9 14.1 7.3
2014-Aug-26 09:00N 56°00' W 003°30'7 6.7 1013.4 13.2 8.0
2014-Aug-26 08:00N 56°00' W 003°18'7 6.7 1013.3 13.1 8.1
2014-Aug-26 07:00N 56°00' W 003°06'0 0.0 1012.6 12.4 8.6
2014-Aug-26 06:00N 56°00' W 003°06'0 0.0 1011.8 12.1 8.8
2014-Aug-26 05:00N 56°00' W 003°06'0 0.0 1011.2 11.7 9.1
2014-Aug-26 04:00N 56°00' W 003°06'0 0.0 1010.7 12.0 9.2
2014-Aug-26 03:00N 56°00' W 003°06'0 0.0 1010.4 12.1 9.2
2014-Aug-26 02:00N 56°00' W 003°06'0 0.0 1010.1 12.2 9.3
2014-Aug-26 01:00N 56°00' W 003°06'0 0.0 1009.6 12.6 9.5
2014-Aug-26 00:00N 56°00' W 003°06'0 0.0 1009.7 12.7 9.8
2014-Aug-25 23:00N 56°00' W 003°06'0 0.0 1009.5 12.6 9.9
2014-Aug-25 22:00N 56°00' W 003°06'0 0.0 1009.3 12.810.2
2014-Aug-25 21:00N 56°00' W 003°06'0 0.0 1009.2 13.010.4
2014-Aug-25 20:00N 56°00' W 003°06'9 9.0 1009.3 14.311.0
2014-Aug-25 19:00N 56°06' W 002°54'1211.7 1009.6 14.110.7
2014-Aug-25 18:00N 56°12' W 002°36'7 6.9 1009.7 14.310.3
2014-Aug-25 17:00N 56°18' W 002°30'1212.0 1009.5 13.6 9.8
2014-Aug-25 16:00N 56°30' W 002°30'3 3.3 1010.2 13.8 8.8
2014-Aug-25 15:00N 56°30' W 002°36'0 0.0 1011.0 12.6 7.2
2014-Aug-25 14:00N 56°30' W 002°36'7 6.6 1010.7 12.5 7.0
2014-Aug-25 13:00N 56°30' W 002°48'0 0.0 1010.7 12.7 7.6
2014-Aug-25 12:00N 56°30' W 002°48'7 6.6 1012.0 13.0 7.7
2014-Aug-25 11:00N 56°30' W 002°36'0 0.0 1012.6 13.5 7.6
2014-Aug-25 10:00N 56°30' W 002°36'0 0.0 1012.9 14.0 8.6
2014-Aug-25 09:00N 56°30' W 002°36'0 0.0 1013.3 12.5 8.5
2014-Aug-25 08:00N 56°30' W 002°36'0 0.0 1013.0 13.5 9.6
2014-Aug-25 07:00N 56°30' W 002°36'0 0.0 1013.2 10.7 8.1
2014-Aug-25 06:00N 56°30' W 002°36'0 0.0 1013.1 9.9 7.7
2014-Aug-25 05:00N 56°30' W 002°36'0 0.0 1013.0 8.6 6.7
2014-Aug-25 04:00N 56°30' W 002°36'0 0.0 1013.3 8.4 6.4
2014-Aug-25 03:00N 56°30' W 002°36'0 0.0 1013.7 8.8 6.7
2014-Aug-25 02:00N 56°30' W 002°36'0 0.0 1014.0 9.3 7.1
2014-Aug-25 01:00N 56°30' W 002°36'0 0.0 1014.3 10.1 7.6
2014-Aug-25 00:00N 56°30' W 002°36'0 0.0 1014.7 12.6 7.7
2014-Aug-24 23:00N 56°30' W 002°36'0 0.0 1015.1 12.9 8.0
2014-Aug-24 22:00N 56°30' W 002°36'0 0.0 1015.3 13.0 8.0
2014-Aug-24 21:00N 56°30' W 002°36'0 0.0 1015.3 12.8 6.6
2014-Aug-24 20:00N 56°30' W 002°36'0 0.0 1015.4 12.8 8.0
2014-Aug-24 19:00N 56°30' W 002°36'0 0.0 1015.1 13.4 6.8
2014-Aug-24 18:00N 56°30' W 002°36'1212.5 1015.2 14.7 7.1
2014-Aug-24 17:00N 56°18' W 002°30'7 6.9 1015.5 14.6 5.3
2014-Aug-24 16:00N 56°12' W 002°36'1211.7 1015.8 13.7 4.3
2014-Aug-24 15:00N 56°06' W 002°54'9 9.0 1016.1 13.5 4.3
2014-Aug-24 14:00N 56°00' W 003°06'3 3.4 1016.3 15.1 4.0
2014-Aug-24 13:00N 56°00' W 003°12'0 0.0 1016.3 13.4 2.7
2014-Aug-24 12:00N 56°00' W 003°12'0 0.0 1016.7 12.9 2.8
2014-Aug-24 11:00N 56°00' W 003°12'3 3.4 1016.9 11.9 5.7
2014-Aug-24 10:00N 56°00' W 003°06'0 0.0 1017.0 11.3 5.9
2014-Aug-24 09:00N 56°00' W 003°06'0 0.0 1017.3 10.4 6.4
2014-Aug-24 08:00N 56°00' W 003°06'0 0.0 1017.3 10.1 6.2
2014-Aug-24 07:00N 56°00' W 003°06'0 0.0 1017.4 10.0 6.5
2014-Aug-24 06:00N 56°00' W 003°06'0 0.0 1017.2 9.5 6.3
2014-Aug-24 05:00N 56°00' W 003°06'0 0.0 1016.7 9.5 6.4
2014-Aug-24 04:00N 56°00' W 003°06'0 0.0 1016.6 10.1 6.6
2014-Aug-24 03:00N 56°00' W 003°06'0 0.0 1016.5 10.6 6.5
2014-Aug-24 02:00N 56°00' W 003°06'0 0.0 1016.4 10.9 7.0
2014-Aug-24 01:00N 56°00' W 003°06'0 0.0 1016.5 11.3 7.3
2014-Aug-24 00:00N 56°00' W 003°06'0 0.0 1016.5 11.7 7.2
2014-Aug-23 23:00N 56°00' W 003°06'0 0.0 1016.3 11.9 6.6
2014-Aug-23 22:00N 56°00' W 003°06'0 0.0 1016.2 12.3 6.6
2014-Aug-23 21:00N 56°00' W 003°06'0 0.0 1015.9 12.7 6.2
2014-Aug-23 20:00N 56°00' W 003°06'0 0.0 1015.3 13.1 6.2
2014-Aug-23 19:00N 56°00' W 003°06'0 0.0 1014.7 12.8 6.4
2014-Aug-23 18:00N 56°00' W 003°06'0 0.0 1014.1 13.3 6.2
2014-Aug-23 16:00N 56°00' W 003°06'0 0.0 1013.7 14.7 7.9
2014-Aug-23 15:00N 56°00' W 003°06'0 0.0 1013.5 13.6 6.8
2014-Aug-23 14:00N 56°00' W 003°06'3 3.4 1013.6 12.5 8.5
2014-Aug-23 13:00N 56°00' W 003°00'7 6.9 1013.7 11.6 7.7
2014-Aug-23 12:00N 56°06' W 002°54'7 6.9 1013.5 11.0 6.5
2014-Aug-23 11:00N 56°12' W 002°48'3 3.3 1013.6 14.3 7.2
2014-Aug-23 10:00N 56°12' W 002°54'7 6.9 1014.0 12.9 6.9
2014-Aug-23 09:00N 56°06' W 003°00'3 3.3 1013.8 12.2 7.2
2014-Aug-23 08:00N 56°06' W 003°06'0 0.0 1013.6 11.5 7.2
2014-Aug-23 07:00N 56°06' W 003°06'0 0.0 1013.2 11.0 7.6
2014-Aug-23 06:00N 56°06' W 003°06'0 0.0 1012.7 10.6 7.4
2014-Aug-23 05:00N 56°06' W 003°06'0 0.0 1012.3 10.3 7.3
2014-Aug-23 04:00N 56°06' W 003°06'0 0.0 1011.9 10.5 7.0
2014-Aug-23 03:00N 56°06' W 003°06'0 0.0 1011.6 10.5 7.1
2014-Aug-23 02:00N 56°06' W 003°06'0 0.0 1011.5 10.3 6.9
2014-Aug-23 01:00N 56°06' W 003°06'0 0.0 1011.5 10.3 6.8
2014-Aug-23 00:00N 56°06' W 003°06'0 0.0 1011.5 11.0 7.3
2014-Aug-22 23:00N 56°06' W 003°06'0 0.0 1011.5 10.8 8.0
2014-Aug-22 22:00N 56°06' W 003°06'0 0.0 1011.4 10.4 7.6
2014-Aug-22 21:00N 56°06' W 003°06'0 0.0 1011.2 11.2 8.1
2014-Aug-22 20:00N 56°06' W 003°06'0 0.0 1011.1 11.9 7.7
2014-Aug-22 19:00N 56°06' W 003°06'0 0.0 1010.7 12.2 7.5
2014-Aug-22 18:00N 56°06' W 003°06'3 3.3 1010.4 13.0 6.9
2014-Aug-22 17:00N 56°06' W 003°00'7 6.7 1009.5 13.3 6.1
2014-Aug-22 16:00N 56°06' W 002°48'3 3.3 1009.6 13.5 7.2
2014-Aug-22 15:00N 56°06' W 002°42'7 6.9 1009.9 14.4 7.5
2014-Aug-22 14:00N 56°00' W 002°36'10 5.0 1009.7 13.9 7.1
2014-Aug-22 12:00N 56°00' W 002°18'9 9.0 1009.1 12.8 6.2
2014-Aug-22 11:00N 55°54' W 002°06'9 9.0 1009.2 12.7 6.7
2014-Aug-22 10:00N 55°48' W 001°54'9 9.0 1008.9 12.0 6.6
2014-Aug-22 09:00N 55°42' W 001°42'7 6.9 1008.6 11.9 7.6
2014-Aug-22 08:00N 55°36' W 001°36'0 0.0 1008.6 12.3 8.2
2014-Aug-22 07:00N 55°36' W 001°36'0 0.0 1008.1 11.0 7.8
2014-Aug-22 06:00N 55°36' W 001°36'0 0.0 1007.7 10.7 7.6
2014-Aug-22 04:00N 55°36' W 001°36'0 0.0 1007.3 11.6 7.6
2014-Aug-22 03:00N 55°36' W 001°36'0 0.0 1007.2 11.5 7.9
2014-Aug-22 02:00N 55°36' W 001°36'0 0.0 1007.1 11.5 7.9
2014-Aug-22 01:00N 55°36' W 001°36'0 0.0 1006.9 11.3 8.0
2014-Aug-22 00:00N 55°36' W 001°36'0 0.0 1006.9 11.5 8.1
2014-Aug-21 23:00N 55°36' W 001°36'0 0.0 1006.8 11.9 8.3
2014-Aug-21 22:00N 55°36' W 001°36'0 0.0 1006.6 12.1 8.8
2014-Aug-21 21:00N 55°36' W 001°36'0 0.0 1006.3 12.3 9.1
2014-Aug-21 20:00N 55°36' W 001°36'0 0.0 1005.7 12.9 9.4
2014-Aug-21 19:00N 55°36' W 001°36'0 0.0 1005.2 13.5 9.5
2014-Aug-21 18:00N 55°36' W 001°36'0 0.0 1004.7 14.4 9.3
2014-Aug-21 17:00N 55°36' W 001°36'0 0.0 1004.8 14.410.5
2014-Aug-21 16:00N 55°36' W 001°36'0 0.0 1005.0 12.9 9.3
2014-Aug-21 15:00N 55°36' W 001°36'0 0.0 1005.1 13.110.0
2014-Aug-21 14:00N 55°36' W 001°36'0 0.0 1004.9 15.5 9.0
2014-Aug-21 13:00N 55°36' W 001°36'0 0.0 1005.5 14.2 8.7
2014-Aug-21 12:00N 55°36' W 001°36'0 0.0 1006.2 14.0 8.6
2014-Aug-21 11:00N 55°36' W 001°36'0 0.0 1006.9 12.2 9.1
2014-Aug-21 10:00N 55°36' W 001°36'0 0.0 1007.4 11.7 8.7
2014-Aug-21 09:00N 55°36' W 001°36'0 0.0 1008.2 11.2 8.4
2014-Aug-21 08:00N 55°36' W 001°36'0 0.0 1008.8 10.4 8.3
2014-Aug-21 07:00N 55°36' W 001°36'0 0.0 1009.4 9.9 8.0
2014-Aug-21 06:00N 55°36' W 001°36'0 0.0 1010.0 9.9 7.7
2014-Aug-21 05:00N 55°36' W 001°36'0 0.0 1010.6 10.3 7.5
2014-Aug-21 04:00N 55°36' W 001°36'0 0.0 1011.2 10.7 7.6
2014-Aug-21 03:00N 55°36' W 001°36'0 0.0 1011.8 10.5 7.7
2014-Aug-21 02:00N 55°36' W 001°36'0 0.0 1012.2 10.7 7.3
2014-Aug-21 01:00N 55°36' W 001°36'0 0.0 1012.5 11.4 7.0
2014-Aug-21 00:00N 55°36' W 001°36'0 0.0 1012.9 11.6 7.1
2014-Aug-20 23:00N 55°36' W 001°36'0 0.0 1013.2 11.8 7.5
2014-Aug-20 22:00N 55°36' W 001°36'0 0.0 1013.5 12.3 7.3
2014-Aug-20 21:00N 55°36' W 001°36'7 3.4 1013.8 12.8 8.1
2014-Aug-20 19:00N 55°30' W 001°30'7 6.9 1014.0 13.5 9.2
2014-Aug-20 18:00N 55°24' W 001°24'1413.8 1014.4 13.3 8.2
2014-Aug-20 17:00N 55°12' W 001°12'7 6.9 1014.9 12.8 6.8
2014-Aug-20 16:00N 55°06' W 001°06'9 9.1 1015.3 12.3 7.2
2014-Aug-20 15:00N 55°00' W 000°54'1212.5 1015.7 12.3 6.3
2014-Aug-20 14:00N 54°48' W 000°48'7 6.9 1015.7 12.6 6.0
2014-Aug-20 13:00N 54°42' W 000°42'9 9.2 1015.8 12.5 6.2
2014-Aug-20 12:00N 54°36' W 000°30'7 6.9 1015.9 12.6 6.5
2014-Aug-20 11:00N 54°30' W 000°24'7 6.9 1015.8 12.2 6.5
2014-Aug-20 10:00N 54°24' W 000°18'1312.5 1015.6 12.3 8.0
2014-Aug-20 09:00N 54°12' W 000°12'9 9.2 1015.4 12.2 8.5
2014-Aug-20 08:00N 54°06' E 000°00'7 3.5 1015.4 13.1 8.8
2014-Aug-20 06:00N 54°06' W 000°12'0 0.0 1014.9 9.4 6.8
2014-Aug-20 05:00N 54°06' W 000°12'0 0.0 1014.8 9.3 6.8
2014-Aug-20 04:00N 54°06' W 000°12'0 0.0 1014.6 9.6 7.2
2014-Aug-20 03:00N 54°06' W 000°12'0 0.0 1014.6 9.6 7.3
2014-Aug-20 02:00N 54°06' W 000°12'0 0.0 1014.3 9.9 7.3
2014-Aug-20 01:00N 54°06' W 000°12'0 0.0 1014.5 10.5 7.3
2014-Aug-20 00:00N 54°06' W 000°12'0 0.0 1014.5 11.0 7.8
2014-Aug-19 23:00N 54°06' W 000°12'0 0.0 1014.6 11.4 7.8
2014-Aug-19 22:00N 54°06' W 000°12'0 0.0 1014.9 11.5 8.5
2014-Aug-19 21:00N 54°06' W 000°12'0 0.0 1014.2 11.5 9.2
2014-Aug-19 20:00N 54°06' W 000°12'0 0.0 1014.0 12.6 9.1
2014-Aug-19 19:00N 54°06' W 000°12'0 0.0 1013.8 13.3 8.5
2014-Aug-19 18:00N 54°06' W 000°12'0 0.0 1013.6 13.6 7.5
2014-Aug-19 17:00N 54°06' W 000°12'0 0.0 1013.2 13.9 7.6
2014-Aug-19 16:00N 54°06' W 000°12'0 0.0 1012.7 13.6 6.7
2014-Aug-19 15:00N 54°06' W 000°12'0 0.0 1012.3 13.3 7.0
2014-Aug-19 14:00N 54°06' W 000°12'0 0.0 1011.9 14.0 7.9
2014-Aug-19 13:00N 54°06' W 000°12'0 0.0 1011.6 13.7 8.2
2014-Aug-19 12:00N 54°06' W 000°12'0 0.0 1010.9 12.6 7.7
2014-Aug-19 11:00N 54°06' W 000°12'0 0.0 1010.5 12.2 7.2
2014-Aug-19 10:00N 54°06' W 000°12'0 0.0 1010.0 12.3 6.5
2014-Aug-19 09:00N 54°06' W 000°12'4 3.5 1009.7 11.8 6.8
2014-Aug-19 08:00N 54°06' W 000°06'   1009.0 11.0 6.9
Track history (hours):
 
Tides and Currents Weather Stations Pressure Air Temp Water Temp Dewpoint Dewpoint Depression Visibility Wind Speed Wind Dir Waves Ship Positions

Callsign AMOUK35 (name unknown)

Last reported at 2014-Aug-29 08:00 UTC. Time now 2014-Aug-29 10:21 UTC.
Position N 56°00' W 003°12'.

Barometer 999.1 mb
Air temperature 17.0 ° C
Dewpoint 11.6 ° C

Date/timePositionNaut miles runAvg speedWind from/ knotsBaromVisibWave heightAir tempDewpointWater temp
2014-Aug-29 08:00N 56°00' W 003°12'0 0.0 999.1 17.011.6
2014-Aug-29 07:00N 56°00' W 003°12'0 0.0 999.1 15.211.7
2014-Aug-29 06:00N 56°00' W 003°12'0 0.0 999.2 14.511.8
2014-Aug-29 04:00N 56°00' W 003°12'0 0.0 1000.0 14.912.3
2014-Aug-29 02:00N 56°00' W 003°12'0 0.0 1001.0 15.911.9
2014-Aug-29 01:00N 56°00' W 003°12'0 0.0 1001.7 16.011.0
2014-Aug-28 19:00N 56°00' W 003°12'0 0.0 1003.4 16.9 8.8
2014-Aug-28 18:00N 56°00' W 003°12'0 0.0 1003.6 18.5 7.3
2014-Aug-28 17:00N 56°00' W 003°12'0 0.0 1003.5 19.0 8.1
2014-Aug-28 12:00N 56°00' W 003°12'0 0.0 1004.0 20.211.0
2014-Aug-28 11:00N 56°00' W 003°12'0 0.0 1004.0 19.810.4
2014-Aug-28 08:00N 56°00' W 003°12'0 0.0 1004.7 16.112.6
2014-Aug-28 05:00N 56°00' W 003°12'0 0.0 1005.3 14.611.9
2014-Aug-27 21:00N 56°00' W 003°12'0 0.0 1011.4 13.6 9.9
2014-Aug-27 19:00N 56°00' W 003°12'0 0.0 1012.1 14.4 9.1
2014-Aug-27 18:00N 56°00' W 003°12'0 0.0 1012.4 14.510.1
2014-Aug-27 17:00N 56°00' W 003°12'0 0.0 1012.8 15.6 9.6
2014-Aug-27 16:00N 56°00' W 003°12'0 0.0 1013.3 14.9 9.8
2014-Aug-27 15:00N 56°00' W 003°12'0 0.0 1013.8 15.6 9.8
2014-Aug-27 14:00N 56°00' W 003°12'0 0.0 1014.6 15.310.1
2014-Aug-27 13:00N 56°00' W 003°12'0 0.0 1015.6 14.1 8.7
2014-Aug-27 12:00N 56°00' W 003°12'0 0.0 1016.1 15.1 6.8
2014-Aug-27 11:00N 56°00' W 003°12'0 0.0 1016.8 13.0 9.9
2014-Aug-27 10:00N 56°00' W 003°12'0 0.0 1017.3 12.5 9.3
2014-Aug-27 09:00N 56°00' W 003°12'0 0.0 1017.5 11.6 7.6
2014-Aug-27 08:00N 56°00' W 003°12'0 0.0 1017.7 11.2 7.5
2014-Aug-27 07:00N 56°00' W 003°12'0 0.0 1017.5 10.8 7.6
2014-Aug-27 06:00N 56°00' W 003°12'0 0.0 1017.4 9.8 7.1
2014-Aug-27 05:00N 56°00' W 003°12'0 0.0 1017.5 9.5 6.9
2014-Aug-27 04:00N 56°00' W 003°12'0 0.0 1017.4 10.1 7.1
2014-Aug-27 03:00N 56°00' W 003°12'0 0.0 1017.8 10.3 7.1
2014-Aug-27 02:00N 56°00' W 003°12'0 0.0 1017.6 10.3 7.0
2014-Aug-27 01:00N 56°00' W 003°12'0 0.0 1017.6 10.6 6.9
2014-Aug-27 00:00N 56°00' W 003°12'0 0.0 1017.5 11.0 8.1
2014-Aug-26 23:00N 56°00' W 003°12'0 0.0 1017.2 11.1 8.1
2014-Aug-26 22:00N 56°00' W 003°12'0 0.0 1017.1 11.7 8.3
2014-Aug-26 21:00N 56°00' W 003°12'0 0.0 1016.9 12.9 8.7
2014-Aug-26 20:00N 56°00' W 003°12'0 0.0 1016.5 13.0 8.4
2014-Aug-26 19:00N 56°00' W 003°12'0 0.0 1015.9 13.5 8.2
2014-Aug-26 18:00N 56°00' W 003°12'0 0.0 1015.4 14.0 8.0
2014-Aug-26 17:00N 56°00' W 003°12'0 0.0 1015.3 14.1 7.8
2014-Aug-26 16:00N 56°00' W 003°12'0 0.0 1015.2 14.2 7.8
2014-Aug-26 15:00N 56°00' W 003°12'0 0.0 1015.0 14.1 7.6
2014-Aug-26 14:00N 56°00' W 003°12'0 0.0 1014.9 13.8 7.5
2014-Aug-26 13:00N 56°00' W 003°12'0 0.0 1014.9 12.7 8.2
2014-Aug-26 12:00N 56°00' W 003°12'3 3.4 1014.4 12.9 8.8
2014-Aug-26 11:00N 56°00' W 003°18'7 6.7 1014.0 13.1 8.8
2014-Aug-26 10:00N 56°00' W 003°30'0 0.0 1013.9 14.1 7.3
2014-Aug-26 09:00N 56°00' W 003°30'7 6.7 1013.4 13.2 8.0
2014-Aug-26 08:00N 56°00' W 003°18'7 6.7 1013.3 13.1 8.1
2014-Aug-26 07:00N 56°00' W 003°06'0 0.0 1012.6 12.4 8.6
2014-Aug-26 06:00N 56°00' W 003°06'0 0.0 1011.8 12.1 8.8
2014-Aug-26 05:00N 56°00' W 003°06'0 0.0 1011.2 11.7 9.1
2014-Aug-26 04:00N 56°00' W 003°06'0 0.0 1010.7 12.0 9.2
2014-Aug-26 03:00N 56°00' W 003°06'0 0.0 1010.4 12.1 9.2
2014-Aug-26 02:00N 56°00' W 003°06'0 0.0 1010.1 12.2 9.3
2014-Aug-26 01:00N 56°00' W 003°06'0 0.0 1009.6 12.6 9.5
2014-Aug-26 00:00N 56°00' W 003°06'0 0.0 1009.7 12.7 9.8
2014-Aug-25 23:00N 56°00' W 003°06'0 0.0 1009.5 12.6 9.9
2014-Aug-25 22:00N 56°00' W 003°06'0 0.0 1009.3 12.810.2
2014-Aug-25 21:00N 56°00' W 003°06'0 0.0 1009.2 13.010.4
2014-Aug-25 20:00N 56°00' W 003°06'9 9.0 1009.3 14.311.0
2014-Aug-25 19:00N 56°06' W 002°54'1211.7 1009.6 14.110.7
2014-Aug-25 18:00N 56°12' W 002°36'7 6.9 1009.7 14.310.3
2014-Aug-25 17:00N 56°18' W 002°30'1212.0 1009.5 13.6 9.8
2014-Aug-25 16:00N 56°30' W 002°30'3 3.3 1010.2 13.8 8.8
2014-Aug-25 15:00N 56°30' W 002°36'0 0.0 1011.0 12.6 7.2
2014-Aug-25 14:00N 56°30' W 002°36'7 6.6 1010.7 12.5 7.0
2014-Aug-25 13:00N 56°30' W 002°48'0 0.0 1010.7 12.7 7.6
2014-Aug-25 12:00N 56°30' W 002°48'7 6.6 1012.0 13.0 7.7
2014-Aug-25 11:00N 56°30' W 002°36'0 0.0 1012.6 13.5 7.6
2014-Aug-25 10:00N 56°30' W 002°36'0 0.0 1012.9 14.0 8.6
2014-Aug-25 09:00N 56°30' W 002°36'0 0.0 1013.3 12.5 8.5
2014-Aug-25 08:00N 56°30' W 002°36'0 0.0 1013.0 13.5 9.6
2014-Aug-25 07:00N 56°30' W 002°36'0 0.0 1013.2 10.7 8.1
2014-Aug-25 06:00N 56°30' W 002°36'0 0.0 1013.1 9.9 7.7
2014-Aug-25 05:00N 56°30' W 002°36'0 0.0 1013.0 8.6 6.7
2014-Aug-25 04:00N 56°30' W 002°36'0 0.0 1013.3 8.4 6.4
2014-Aug-25 03:00N 56°30' W 002°36'0 0.0 1013.7 8.8 6.7
2014-Aug-25 02:00N 56°30' W 002°36'0 0.0 1014.0 9.3 7.1
2014-Aug-25 01:00N 56°30' W 002°36'0 0.0 1014.3 10.1 7.6
2014-Aug-25 00:00N 56°30' W 002°36'0 0.0 1014.7 12.6 7.7
2014-Aug-24 23:00N 56°30' W 002°36'0 0.0 1015.1 12.9 8.0
2014-Aug-24 22:00N 56°30' W 002°36'0 0.0 1015.3 13.0 8.0
2014-Aug-24 21:00N 56°30' W 002°36'0 0.0 1015.3 12.8 6.6
2014-Aug-24 20:00N 56°30' W 002°36'0 0.0 1015.4 12.8 8.0
2014-Aug-24 19:00N 56°30' W 002°36'0 0.0 1015.1 13.4 6.8
2014-Aug-24 18:00N 56°30' W 002°36'1212.5 1015.2 14.7 7.1
2014-Aug-24 17:00N 56°18' W 002°30'7 6.9 1015.5 14.6 5.3
2014-Aug-24 16:00N 56°12' W 002°36'1211.7 1015.8 13.7 4.3
2014-Aug-24 15:00N 56°06' W 002°54'9 9.0 1016.1 13.5 4.3
2014-Aug-24 14:00N 56°00' W 003°06'3 3.4 1016.3 15.1 4.0
2014-Aug-24 13:00N 56°00' W 003°12'0 0.0 1016.3 13.4 2.7
2014-Aug-24 12:00N 56°00' W 003°12'0 0.0 1016.7 12.9 2.8
2014-Aug-24 11:00N 56°00' W 003°12'3 3.4 1016.9 11.9 5.7
2014-Aug-24 10:00N 56°00' W 003°06'0 0.0 1017.0 11.3 5.9
2014-Aug-24 09:00N 56°00' W 003°06'0 0.0 1017.3 10.4 6.4
2014-Aug-24 08:00N 56°00' W 003°06'0 0.0 1017.3 10.1 6.2
2014-Aug-24 07:00N 56°00' W 003°06'0 0.0 1017.4 10.0 6.5
2014-Aug-24 06:00N 56°00' W 003°06'0 0.0 1017.2 9.5 6.3
2014-Aug-24 05:00N 56°00' W 003°06'0 0.0 1016.7 9.5 6.4
2014-Aug-24 04:00N 56°00' W 003°06'0 0.0 1016.6 10.1 6.6
2014-Aug-24 03:00N 56°00' W 003°06'0 0.0 1016.5 10.6 6.5
2014-Aug-24 02:00N 56°00' W 003°06'0 0.0 1016.4 10.9 7.0
2014-Aug-24 01:00N 56°00' W 003°06'0 0.0 1016.5 11.3 7.3
2014-Aug-24 00:00N 56°00' W 003°06'0 0.0 1016.5 11.7 7.2
2014-Aug-23 23:00N 56°00' W 003°06'0 0.0 1016.3 11.9 6.6
2014-Aug-23 22:00N 56°00' W 003°06'0 0.0 1016.2 12.3 6.6
2014-Aug-23 21:00N 56°00' W 003°06'0 0.0 1015.9 12.7 6.2
2014-Aug-23 20:00N 56°00' W 003°06'0 0.0 1015.3 13.1 6.2
2014-Aug-23 19:00N 56°00' W 003°06'0 0.0 1014.7 12.8 6.4
2014-Aug-23 18:00N 56°00' W 003°06'0 0.0 1014.1 13.3 6.2
2014-Aug-23 16:00N 56°00' W 003°06'0 0.0 1013.7 14.7 7.9
2014-Aug-23 15:00N 56°00' W 003°06'0 0.0 1013.5 13.6 6.8
2014-Aug-23 14:00N 56°00' W 003°06'3 3.4 1013.6 12.5 8.5
2014-Aug-23 13:00N 56°00' W 003°00'7 6.9 1013.7 11.6 7.7
2014-Aug-23 12:00N 56°06' W 002°54'7 6.9 1013.5 11.0 6.5
2014-Aug-23 11:00N 56°12' W 002°48'3 3.3 1013.6 14.3 7.2
2014-Aug-23 10:00N 56°12' W 002°54'7 6.9 1014.0 12.9 6.9
2014-Aug-23 09:00N 56°06' W 003°00'3 3.3 1013.8 12.2 7.2
2014-Aug-23 08:00N 56°06' W 003°06'0 0.0 1013.6 11.5 7.2
2014-Aug-23 07:00N 56°06' W 003°06'0 0.0 1013.2 11.0 7.6
2014-Aug-23 06:00N 56°06' W 003°06'0 0.0 1012.7 10.6 7.4
2014-Aug-23 05:00N 56°06' W 003°06'0 0.0 1012.3 10.3 7.3
2014-Aug-23 04:00N 56°06' W 003°06'0 0.0 1011.9 10.5 7.0
2014-Aug-23 03:00N 56°06' W 003°06'0 0.0 1011.6 10.5 7.1
2014-Aug-23 02:00N 56°06' W 003°06'0 0.0 1011.5 10.3 6.9
2014-Aug-23 01:00N 56°06' W 003°06'0 0.0 1011.5 10.3 6.8
2014-Aug-23 00:00N 56°06' W 003°06'0 0.0 1011.5 11.0 7.3
2014-Aug-22 23:00N 56°06' W 003°06'0 0.0 1011.5 10.8 8.0
2014-Aug-22 22:00N 56°06' W 003°06'0 0.0 1011.4 10.4 7.6
2014-Aug-22 21:00N 56°06' W 003°06'0 0.0 1011.2 11.2 8.1
2014-Aug-22 20:00N 56°06' W 003°06'0 0.0 1011.1 11.9 7.7
2014-Aug-22 19:00N 56°06' W 003°06'0 0.0 1010.7 12.2 7.5
2014-Aug-22 18:00N 56°06' W 003°06'3 3.3 1010.4 13.0 6.9
2014-Aug-22 17:00N 56°06' W 003°00'7 6.7 1009.5 13.3 6.1
2014-Aug-22 16:00N 56°06' W 002°48'3 3.3 1009.6 13.5 7.2
2014-Aug-22 15:00N 56°06' W 002°42'7 6.9 1009.9 14.4 7.5
2014-Aug-22 14:00N 56°00' W 002°36'10 5.0 1009.7 13.9 7.1
2014-Aug-22 12:00N 56°00' W 002°18'9 9.0 1009.1 12.8 6.2
2014-Aug-22 11:00N 55°54' W 002°06'9 9.0 1009.2 12.7 6.7
2014-Aug-22 10:00N 55°48' W 001°54'9 9.0 1008.9 12.0 6.6
2014-Aug-22 09:00N 55°42' W 001°42'7 6.9 1008.6 11.9 7.6
2014-Aug-22 08:00N 55°36' W 001°36'0 0.0 1008.6 12.3 8.2
2014-Aug-22 07:00N 55°36' W 001°36'0 0.0 1008.1 11.0 7.8
2014-Aug-22 06:00N 55°36' W 001°36'0 0.0 1007.7 10.7 7.6
2014-Aug-22 04:00N 55°36' W 001°36'0 0.0 1007.3 11.6 7.6
2014-Aug-22 03:00N 55°36' W 001°36'0 0.0 1007.2 11.5 7.9
2014-Aug-22 02:00N 55°36' W 001°36'0 0.0 1007.1 11.5 7.9
2014-Aug-22 01:00N 55°36' W 001°36'0 0.0 1006.9 11.3 8.0
2014-Aug-22 00:00N 55°36' W 001°36'0 0.0 1006.9 11.5 8.1
2014-Aug-21 23:00N 55°36' W 001°36'0 0.0 1006.8 11.9 8.3
2014-Aug-21 22:00N 55°36' W 001°36'0 0.0 1006.6 12.1 8.8
2014-Aug-21 21:00N 55°36' W 001°36'0 0.0 1006.3 12.3 9.1
2014-Aug-21 20:00N 55°36' W 001°36'0 0.0 1005.7 12.9 9.4
2014-Aug-21 19:00N 55°36' W 001°36'0 0.0 1005.2 13.5 9.5
2014-Aug-21 18:00N 55°36' W 001°36'0 0.0 1004.7 14.4 9.3
2014-Aug-21 17:00N 55°36' W 001°36'0 0.0 1004.8 14.410.5
2014-Aug-21 16:00N 55°36' W 001°36'0 0.0 1005.0 12.9 9.3
2014-Aug-21 15:00N 55°36' W 001°36'0 0.0 1005.1 13.110.0
2014-Aug-21 14:00N 55°36' W 001°36'0 0.0 1004.9 15.5 9.0
2014-Aug-21 13:00N 55°36' W 001°36'0 0.0 1005.5 14.2 8.7
2014-Aug-21 12:00N 55°36' W 001°36'0 0.0 1006.2 14.0 8.6
2014-Aug-21 11:00N 55°36' W 001°36'0 0.0 1006.9 12.2 9.1
2014-Aug-21 10:00N 55°36' W 001°36'0 0.0 1007.4 11.7 8.7
2014-Aug-21 09:00N 55°36' W 001°36'0 0.0 1008.2 11.2 8.4
2014-Aug-21 08:00N 55°36' W 001°36'0 0.0 1008.8 10.4 8.3
2014-Aug-21 07:00N 55°36' W 001°36'0 0.0 1009.4 9.9 8.0
2014-Aug-21 06:00N 55°36' W 001°36'0 0.0 1010.0 9.9 7.7
2014-Aug-21 05:00N 55°36' W 001°36'0 0.0 1010.6 10.3 7.5
2014-Aug-21 04:00N 55°36' W 001°36'0 0.0 1011.2 10.7 7.6
2014-Aug-21 03:00N 55°36' W 001°36'0 0.0 1011.8 10.5 7.7
2014-Aug-21 02:00N 55°36' W 001°36'0 0.0 1012.2 10.7 7.3
2014-Aug-21 01:00N 55°36' W 001°36'0 0.0 1012.5 11.4 7.0
2014-Aug-21 00:00N 55°36' W 001°36'0 0.0 1012.9 11.6 7.1
2014-Aug-20 23:00N 55°36' W 001°36'0 0.0 1013.2 11.8 7.5
2014-Aug-20 22:00N 55°36' W 001°36'0 0.0 1013.5 12.3 7.3
2014-Aug-20 21:00N 55°36' W 001°36'7 3.4 1013.8 12.8 8.1
2014-Aug-20 19:00N 55°30' W 001°30'7 6.9 1014.0 13.5 9.2
2014-Aug-20 18:00N 55°24' W 001°24'1413.8 1014.4 13.3 8.2
2014-Aug-20 17:00N 55°12' W 001°12'7 6.9 1014.9 12.8 6.8
2014-Aug-20 16:00N 55°06' W 001°06'9 9.1 1015.3 12.3 7.2
2014-Aug-20 15:00N 55°00' W 000°54'1212.5 1015.7 12.3 6.3
2014-Aug-20 14:00N 54°48' W 000°48'7 6.9 1015.7 12.6 6.0
2014-Aug-20 13:00N 54°42' W 000°42'9 9.2 1015.8 12.5 6.2
2014-Aug-20 12:00N 54°36' W 000°30'7 6.9 1015.9 12.6 6.5
2014-Aug-20 11:00N 54°30' W 000°24'7 6.9 1015.8 12.2 6.5
2014-Aug-20 10:00N 54°24' W 000°18'1312.5 1015.6 12.3 8.0
2014-Aug-20 09:00N 54°12' W 000°12'9 9.2 1015.4 12.2 8.5
2014-Aug-20 08:00N 54°06' E 000°00'7 3.5 1015.4 13.1 8.8
2014-Aug-20 06:00N 54°06' W 000°12'0 0.0 1014.9 9.4 6.8
2014-Aug-20 05:00N 54°06' W 000°12'0 0.0 1014.8 9.3 6.8
2014-Aug-20 04:00N 54°06' W 000°12'0 0.0 1014.6 9.6 7.2
2014-Aug-20 03:00N 54°06' W 000°12'0 0.0 1014.6 9.6 7.3
2014-Aug-20 02:00N 54°06' W 000°12'0 0.0 1014.3 9.9 7.3
2014-Aug-20 01:00N 54°06' W 000°12'0 0.0 1014.5 10.5 7.3
2014-Aug-20 00:00N 54°06' W 000°12'0 0.0 1014.5 11.0 7.8
2014-Aug-19 23:00N 54°06' W 000°12'0 0.0 1014.6 11.4 7.8
2014-Aug-19 22:00N 54°06' W 000°12'0 0.0 1014.9 11.5 8.5
2014-Aug-19 21:00N 54°06' W 000°12'0 0.0 1014.2 11.5 9.2
2014-Aug-19 20:00N 54°06' W 000°12'0 0.0 1014.0 12.6 9.1
2014-Aug-19 19:00N 54°06' W 000°12'0 0.0 1013.8 13.3 8.5
2014-Aug-19 18:00N 54°06' W 000°12'0 0.0 1013.6 13.6 7.5
2014-Aug-19 17:00N 54°06' W 000°12'0 0.0 1013.2 13.9 7.6
2014-Aug-19 16:00N 54°06' W 000°12'0 0.0 1012.7 13.6 6.7
2014-Aug-19 15:00N 54°06' W 000°12'0 0.0 1012.3 13.3 7.0
2014-Aug-19 14:00N 54°06' W 000°12'0 0.0 1011.9 14.0 7.9
2014-Aug-19 13:00N 54°06' W 000°12'0 0.0 1011.6 13.7 8.2
2014-Aug-19 12:00N 54°06' W 000°12'0 0.0 1010.9 12.6 7.7
2014-Aug-19 11:00N 54°06' W 000°12'0 0.0 1010.5 12.2 7.2
2014-Aug-19 10:00N 54°06' W 000°12'0 0.0 1010.0 12.3 6.5
2014-Aug-19 09:00N 54°06' W 000°12'4 3.5 1009.7 11.8 6.8
2014-Aug-19 08:00N 54°06' W 000°06'   1009.0 11.0 6.9

Dump ship's entire track history